Grosse Pointe Park, Michigan
Current Conditions -  °F | °C
As of 12:53 PM on Saturday 25 Oct 2014 (Local Time) from KDET Reporting Station
Overcast Overcast  
Wind Chill: 63°   Ceiling: 2100
Heat Index: 63°   Visibility: 8mi
Dew Point: 51°   Wind: 12mph
Humidity: 65%   Direction: 280°W
Pressure: 29.79"   Gusts: 24mph
Location:  42.4104°N, 82.941°W
Report Text: KDET 251653Z 28010G21KT 8SM OVC021 17/11 A2979 RMK AO2 SLP085 T01720106
Loading
Personal Weather Stations






























Interactive Weather Map
Tropical Storm Tracking
New forecast layout! Learn more

10-Day Weather Forecast

Advertisements
Track Severe Weather on mobile